sensor_id;sensor_type;location;lat;lon;timestamp;temperature;humidity
39621;DHT22;25309;48.686;9.170;2024-02-21T00:01:37;6.50;99.90
39621;DHT22;25309;48.686;9.170;2024-02-21T00:04:04;6.50;99.90
39621;DHT22;25309;48.686;9.170;2024-02-21T00:06:32;6.50;99.90
39621;DHT22;25309;48.686;9.170;2024-02-21T00:08:59;6.60;99.90
39621;DHT22;25309;48.686;9.170;2024-02-21T00:11:28;6.60;99.90
39621;DHT22;25309;48.686;9.170;2024-02-21T00:13:55;6.70;99.90
39621;DHT22;25309;48.686;9.170;2024-02-21T00:16:22;6.70;99.90
39621;DHT22;25309;48.686;9.170;2024-02-21T00:18:49;6.70;99.90
39621;DHT22;25309;48.686;9.170;2024-02-21T00:21:16;6.70;99.90
39621;DHT22;25309;48.686;9.170;2024-02-21T00:23:45;6.70;99.90
39621;DHT22;25309;48.686;9.170;2024-02-21T00:26:17;6.60;99.90
39621;DHT22;25309;48.686;9.170;2024-02-21T00:28:46;6.60;99.90
39621;DHT22;25309;48.686;9.170;2024-02-21T00:31:12;6.60;99.90
39621;DHT22;25309;48.686;9.170;2024-02-21T00:33:39;6.60;99.90
39621;DHT22;25309;48.686;9.170;2024-02-21T00:36:07;6.60;99.90
39621;DHT22;25309;48.686;9.170;2024-02-21T00:38:33;6.60;99.90
39621;DHT22;25309;48.686;9.170;2024-02-21T00:41:00;6.60;99.90
39621;DHT22;25309;48.686;9.170;2024-02-21T00:43:27;6.60;99.90
39621;DHT22;25309;48.686;9.170;2024-02-21T00:45:56;6.60;99.90
39621;DHT22;25309;48.686;9.170;2024-02-21T00:48:23;6.60;99.90
39621;DHT22;25309;48.686;9.170;2024-02-21T00:50:50;6.60;99.90
39621;DHT22;25309;48.686;9.170;2024-02-21T00:53:17;6.60;99.90
39621;DHT22;25309;48.686;9.170;2024-02-21T00:55:44;6.50;99.90
39621;DHT22;25309;48.686;9.170;2024-02-21T00:58:11;6.40;99.90
39621;DHT22;25309;48.686;9.170;2024-02-21T01:00:38;6.30;99.90
39621;DHT22;25309;48.686;9.170;2024-02-21T01:03:06;6.30;99.90
39621;DHT22;25309;48.686;9.170;2024-02-21T01:05:33;6.30;99.90
39621;DHT22;25309;48.686;9.170;2024-02-21T01:08:00;6.30;99.90
39621;DHT22;25309;48.686;9.170;2024-02-21T01:10:27;6.30;99.90
39621;DHT22;25309;48.686;9.170;2024-02-21T01:12:54;6.30;99.90
39621;DHT22;25309;48.686;9.170;2024-02-21T01:15:21;6.20;99.90
39621;DHT22;25309;48.686;9.170;2024-02-21T01:17:48;6.20;99.90
39621;DHT22;25309;48.686;9.170;2024-02-21T01:20:18;6.20;99.90
39621;DHT22;25309;48.686;9.170;2024-02-21T01:22:44;6.20;99.90
39621;DHT22;25309;48.686;9.170;2024-02-21T01:25:11;6.20;99.90
39621;DHT22;25309;48.686;9.170;2024-02-21T01:27:39;6.20;99.90
39621;DHT22;25309;48.686;9.170;2024-02-21T01:30:06;6.20;99.90
39621;DHT22;25309;48.686;9.170;2024-02-21T01:32:34;6.20;99.90
39621;DHT22;25309;48.686;9.170;2024-02-21T01:35:01;6.20;99.90
39621;DHT22;25309;48.686;9.170;2024-02-21T01:37:29;6.20;99.90
39621;DHT22;25309;48.686;9.170;2024-02-21T01:39:57;6.20;99.90
39621;DHT22;25309;48.686;9.170;2024-02-21T01:42:23;6.20;99.90
39621;DHT22;25309;48.686;9.170;2024-02-21T01:44:50;6.20;99.90
39621;DHT22;25309;48.686;9.170;2024-02-21T01:47:18;6.20;99.90
39621;DHT22;25309;48.686;9.170;2024-02-21T01:49:45;6.20;99.90
39621;DHT22;25309;48.686;9.170;2024-02-21T01:52:14;6.10;99.90
39621;DHT22;25309;48.686;9.170;2024-02-21T01:54:44;6.10;99.90
39621;DHT22;25309;48.686;9.170;2024-02-21T01:57:11;6.00;99.90
39621;DHT22;25309;48.686;9.170;2024-02-21T01:59:38;6.10;99.90
39621;DHT22;25309;48.686;9.170;2024-02-21T02:02:05;6.10;99.90
39621;DHT22;25309;48.686;9.170;2024-02-21T02:04:33;6.00;99.90
39621;DHT22;25309;48.686;9.170;2024-02-21T02:07:02;6.00;99.90
39621;DHT22;25309;48.686;9.170;2024-02-21T02:09:31;6.00;99.90
39621;DHT22;25309;48.686;9.170;2024-02-21T02:11:59;6.00;99.90
39621;DHT22;25309;48.686;9.170;2024-02-21T02:14:27;6.00;99.90
39621;DHT22;25309;48.686;9.170;2024-02-21T02:16:53;6.00;99.90
39621;DHT22;25309;48.686;9.170;2024-02-21T02:19:20;5.90;99.90
39621;DHT22;25309;48.686;9.170;2024-02-21T02:21:51;5.90;99.90
39621;DHT22;25309;48.686;9.170;2024-02-21T02:24:24;5.90;99.90
39621;DHT22;25309;48.686;9.170;2024-02-21T02:26:52;5.90;99.90
39621;DHT22;25309;48.686;9.170;2024-02-21T02:29:19;5.90;99.90
39621;DHT22;25309;48.686;9.170;2024-02-21T02:31:46;5.90;99.90
39621;DHT22;25309;48.686;9.170;2024-02-21T02:34:13;6.00;99.90
39621;DHT22;25309;48.686;9.170;2024-02-21T02:36:41;5.90;99.90
39621;DHT22;25309;48.686;9.170;2024-02-21T02:39:07;5.90;99.90
39621;DHT22;25309;48.686;9.170;2024-02-21T02:41:36;5.90;99.90
39621;DHT22;25309;48.686;9.170;2024-02-21T02:44:03;5.90;99.90
39621;DHT22;25309;48.686;9.170;2024-02-21T02:46:30;6.00;99.90
39621;DHT22;25309;48.686;9.170;2024-02-21T02:48:57;6.00;99.90
39621;DHT22;25309;48.686;9.170;2024-02-21T02:51:24;6.00;99.90
39621;DHT22;25309;48.686;9.170;2024-02-21T02:53:52;6.00;99.90
39621;DHT22;25309;48.686;9.170;2024-02-21T02:56:19;6.10;99.90
39621;DHT22;25309;48.686;9.170;2024-02-21T02:58:47;6.10;99.90
39621;DHT22;25309;48.686;9.170;2024-02-21T03:01:14;6.10;99.90
39621;DHT22;25309;48.686;9.170;2024-02-21T03:03:41;6.10;99.90
39621;DHT22;25309;48.686;9.170;2024-02-21T03:06:09;6.10;99.90
39621;DHT22;25309;48.686;9.170;2024-02-21T03:08:36;6.10;99.90
39621;DHT22;25309;48.686;9.170;2024-02-21T03:11:03;6.10;99.90
39621;DHT22;25309;48.686;9.170;2024-02-21T03:13:30;6.20;99.90
39621;DHT22;25309;48.686;9.170;2024-02-21T03:15:58;6.20;99.90
39621;DHT22;25309;48.686;9.170;2024-02-21T03:18:25;6.20;99.90
39621;DHT22;25309;48.686;9.170;2024-02-21T03:20:52;6.20;99.90
39621;DHT22;25309;48.686;9.170;2024-02-21T03:23:19;6.20;99.90
39621;DHT22;25309;48.686;9.170;2024-02-21T03:25:46;6.10;99.90
39621;DHT22;25309;48.686;9.170;2024-02-21T03:28:15;6.10;99.90
39621;DHT22;25309;48.686;9.170;2024-02-21T03:30:43;6.10;99.90
39621;DHT22;25309;48.686;9.170;2024-02-21T03:33:11;6.10;99.90
39621;DHT22;25309;48.686;9.170;2024-02-21T03:35:38;6.10;99.90
39621;DHT22;25309;48.686;9.170;2024-02-21T03:38:05;6.10;99.90
39621;DHT22;25309;48.686;9.170;2024-02-21T03:40:32;6.10;99.90
39621;DHT22;25309;48.686;9.170;2024-02-21T03:42:59;6.10;99.90
39621;DHT22;25309;48.686;9.170;2024-02-21T03:45:26;6.10;99.90
39621;DHT22;25309;48.686;9.170;2024-02-21T03:47:53;6.10;99.90
39621;DHT22;25309;48.686;9.170;2024-02-21T03:50:21;6.20;99.90
39621;DHT22;25309;48.686;9.170;2024-02-21T03:52:48;6.20;99.90
39621;DHT22;25309;48.686;9.170;2024-02-21T03:55:15;6.20;99.90
39621;DHT22;25309;48.686;9.170;2024-02-21T03:57:42;6.20;99.90
39621;DHT22;25309;48.686;9.170;2024-02-21T04:00:10;6.20;99.90
39621;DHT22;25309;48.686;9.170;2024-02-21T04:02:38;6.30;99.90
39621;DHT22;25309;48.686;9.170;2024-02-21T04:05:05;6.30;99.90
39621;DHT22;25309;48.686;9.170;2024-02-21T04:07:34;6.30;99.90
39621;DHT22;25309;48.686;9.170;2024-02-21T04:10:01;6.40;99.90
39621;DHT22;25309;48.686;9.170;2024-02-21T04:12:28;6.40;99.90
39621;DHT22;25309;48.686;9.170;2024-02-21T04:14:55;6.40;99.90
39621;DHT22;25309;48.686;9.170;2024-02-21T04:17:22;6.40;99.90
39621;DHT22;25309;48.686;9.170;2024-02-21T04:19:49;6.40;99.90
39621;DHT22;25309;48.686;9.170;2024-02-21T04:22:16;6.40;99.90
39621;DHT22;25309;48.686;9.170;2024-02-21T04:24:44;6.40;99.90
39621;DHT22;25309;48.686;9.170;2024-02-21T04:27:11;6.40;99.90
39621;DHT22;25309;48.686;9.170;2024-02-21T04:29:38;6.30;99.90
39621;DHT22;25309;48.686;9.170;2024-02-21T04:32:06;6.30;99.90
39621;DHT22;25309;48.686;9.170;2024-02-21T04:34:33;6.20;99.90
39621;DHT22;25309;48.686;9.170;2024-02-21T04:37:00;6.20;99.90
39621;DHT22;25309;48.686;9.170;2024-02-21T04:39:27;6.10;99.90
39621;DHT22;25309;48.686;9.170;2024-02-21T04:41:55;6.00;99.90
39621;DHT22;25309;48.686;9.170;2024-02-21T04:44:22;6.00;99.90
39621;DHT22;25309;48.686;9.170;2024-02-21T04:46:49;5.90;99.90
39621;DHT22;25309;48.686;9.170;2024-02-21T04:49:16;5.90;99.90
39621;DHT22;25309;48.686;9.170;2024-02-21T04:51:44;5.90;99.90
39621;DHT22;25309;48.686;9.170;2024-02-21T04:54:11;5.90;99.90
39621;DHT22;25309;48.686;9.170;2024-02-21T04:56:38;5.90;99.90
39621;DHT22;25309;48.686;9.170;2024-02-21T04:59:06;5.90;99.90
39621;DHT22;25309;48.686;9.170;2024-02-21T05:01:33;5.90;99.90
39621;DHT22;25309;48.686;9.170;2024-02-21T05:04:01;5.80;99.90
39621;DHT22;25309;48.686;9.170;2024-02-21T05:06:29;5.80;99.90
39621;DHT22;25309;48.686;9.170;2024-02-21T05:08:56;5.70;99.90
39621;DHT22;25309;48.686;9.170;2024-02-21T05:11:24;5.70;99.90
39621;DHT22;25309;48.686;9.170;2024-02-21T05:13:51;5.70;99.90
39621;DHT22;25309;48.686;9.170;2024-02-21T05:16:20;5.60;99.90
39621;DHT22;25309;48.686;9.170;2024-02-21T05:18:47;5.60;99.90
39621;DHT22;25309;48.686;9.170;2024-02-21T05:21:14;5.60;99.90
39621;DHT22;25309;48.686;9.170;2024-02-21T05:23:41;5.50;99.90
39621;DHT22;25309;48.686;9.170;2024-02-21T05:26:09;5.50;99.90
39621;DHT22;25309;48.686;9.170;2024-02-21T05:28:36;5.50;99.90
39621;DHT22;25309;48.686;9.170;2024-02-21T05:31:03;5.50;99.90
39621;DHT22;25309;48.686;9.170;2024-02-21T05:33:31;5.50;99.90
39621;DHT22;25309;48.686;9.170;2024-02-21T05:35:58;5.50;99.90
39621;DHT22;25309;48.686;9.170;2024-02-21T05:38:26;5.50;99.90
39621;DHT22;25309;48.686;9.170;2024-02-21T05:40:52;5.60;99.90
39621;DHT22;25309;48.686;9.170;2024-02-21T05:43:19;5.60;99.90
39621;DHT22;25309;48.686;9.170;2024-02-21T05:45:46;5.50;99.90
39621;DHT22;25309;48.686;9.170;2024-02-21T05:48:13;5.50;99.90
39621;DHT22;25309;48.686;9.170;2024-02-21T05:50:42;5.50;99.90
39621;DHT22;25309;48.686;9.170;2024-02-21T05:53:09;5.60;99.90
39621;DHT22;25309;48.686;9.170;2024-02-21T05:55:37;5.60;99.90
39621;DHT22;25309;48.686;9.170;2024-02-21T05:58:04;5.60;99.90
39621;DHT22;25309;48.686;9.170;2024-02-21T06:00:31;5.60;99.90
39621;DHT22;25309;48.686;9.170;2024-02-21T06:02:58;5.70;99.90
39621;DHT22;25309;48.686;9.170;2024-02-21T06:05:25;5.70;99.90
39621;DHT22;25309;48.686;9.170;2024-02-21T06:07:54;5.70;99.90
39621;DHT22;25309;48.686;9.170;2024-02-21T06:10:21;5.70;99.90
39621;DHT22;25309;48.686;9.170;2024-02-21T06:12:48;5.70;99.90
39621;DHT22;25309;48.686;9.170;2024-02-21T06:15:15;5.70;99.90
39621;DHT22;25309;48.686;9.170;2024-02-21T06:17:42;5.60;99.90
39621;DHT22;25309;48.686;9.170;2024-02-21T06:20:09;5.60;99.90
39621;DHT22;25309;48.686;9.170;2024-02-21T06:22:36;5.50;99.90
39621;DHT22;25309;48.686;9.170;2024-02-21T06:25:05;5.40;99.90
39621;DHT22;25309;48.686;9.170;2024-02-21T06:27:32;5.40;99.90
39621;DHT22;25309;48.686;9.170;2024-02-21T06:29:59;5.40;99.90
39621;DHT22;25309;48.686;9.170;2024-02-21T06:32:26;5.30;99.90
39621;DHT22;25309;48.686;9.170;2024-02-21T06:34:53;5.30;99.90
39621;DHT22;25309;48.686;9.170;2024-02-21T06:37:20;5.30;99.90
39621;DHT22;25309;48.686;9.170;2024-02-21T06:39:47;5.30;99.90
39621;DHT22;25309;48.686;9.170;2024-02-21T06:42:15;5.40;99.90
39621;DHT22;25309;48.686;9.170;2024-02-21T06:44:42;5.30;99.90
39621;DHT22;25309;48.686;9.170;2024-02-21T06:47:10;5.30;99.90
39621;DHT22;25309;48.686;9.170;2024-02-21T06:49:37;5.30;99.90
39621;DHT22;25309;48.686;9.170;2024-02-21T06:52:05;5.40;99.90
39621;DHT22;25309;48.686;9.170;2024-02-21T06:54:32;5.40;99.90
39621;DHT22;25309;48.686;9.170;2024-02-21T06:56:59;5.40;99.90
39621;DHT22;25309;48.686;9.170;2024-02-21T06:59:28;5.50;99.90
39621;DHT22;25309;48.686;9.170;2024-02-21T07:01:55;5.60;99.90
39621;DHT22;25309;48.686;9.170;2024-02-21T07:04:23;5.70;99.90
39621;DHT22;25309;48.686;9.170;2024-02-21T07:06:50;5.70;99.90
39621;DHT22;25309;48.686;9.170;2024-02-21T07:09:17;5.80;99.90
39621;DHT22;25309;48.686;9.170;2024-02-21T07:11:44;5.80;99.90
39621;DHT22;25309;48.686;9.170;2024-02-21T07:14:11;5.90;99.90
39621;DHT22;25309;48.686;9.170;2024-02-21T07:16:40;6.00;99.90
39621;DHT22;25309;48.686;9.170;2024-02-21T07:19:07;6.10;99.90
39621;DHT22;25309;48.686;9.170;2024-02-21T07:21:34;6.10;99.90
39621;DHT22;25309;48.686;9.170;2024-02-21T07:24:01;6.30;99.90
39621;DHT22;25309;48.686;9.170;2024-02-21T07:26:28;6.40;99.90
39621;DHT22;25309;48.686;9.170;2024-02-21T07:28:55;6.70;99.90
39621;DHT22;25309;48.686;9.170;2024-02-21T07:31:22;7.10;99.90
39621;DHT22;25309;48.686;9.170;2024-02-21T07:33:50;7.70;99.90
39621;DHT22;25309;48.686;9.170;2024-02-21T07:36:27;8.20;99.90
39621;DHT22;25309;48.686;9.170;2024-02-21T07:38:55;8.70;99.90
39621;DHT22;25309;48.686;9.170;2024-02-21T07:41:22;9.00;99.90
39621;DHT22;25309;48.686;9.170;2024-02-21T07:43:49;9.20;99.90
39621;DHT22;25309;48.686;9.170;2024-02-21T07:46:17;9.30;99.90
39621;DHT22;25309;48.686;9.170;2024-02-21T07:48:45;9.30;99.90
39621;DHT22;25309;48.686;9.170;2024-02-21T07:51:13;9.40;99.90
39621;DHT22;25309;48.686;9.170;2024-02-21T07:53:40;9.30;99.90
39621;DHT22;25309;48.686;9.170;2024-02-21T07:56:11;9.10;99.90
39621;DHT22;25309;48.686;9.170;2024-02-21T07:58:38;9.00;99.90
39621;DHT22;25309;48.686;9.170;2024-02-21T08:01:05;9.10;99.90
39621;DHT22;25309;48.686;9.170;2024-02-21T08:03:32;9.40;99.90
39621;DHT22;25309;48.686;9.170;2024-02-21T08:06:00;9.60;99.90
39621;DHT22;25309;48.686;9.170;2024-02-21T08:08:28;9.90;99.90
39621;DHT22;25309;48.686;9.170;2024-02-21T08:10:55;10.00;99.90
39621;DHT22;25309;48.686;9.170;2024-02-21T08:13:22;10.10;99.90
39621;DHT22;25309;48.686;9.170;2024-02-21T08:15:49;10.00;99.90
39621;DHT22;25309;48.686;9.170;2024-02-21T08:18:16;9.90;99.90
39621;DHT22;25309;48.686;9.170;2024-02-21T08:20:43;9.90;99.90
39621;DHT22;25309;48.686;9.170;2024-02-21T08:23:10;9.80;99.90
39621;DHT22;25309;48.686;9.170;2024-02-21T08:25:38;9.70;99.90
39621;DHT22;25309;48.686;9.170;2024-02-21T08:28:05;9.60;99.90
39621;DHT22;25309;48.686;9.170;2024-02-21T08:30:34;9.60;99.90
39621;DHT22;25309;48.686;9.170;2024-02-21T08:33:01;9.90;99.90
39621;DHT22;25309;48.686;9.170;2024-02-21T08:35:28;10.10;99.90
39621;DHT22;25309;48.686;9.170;2024-02-21T08:37:55;10.10;99.90
39621;DHT22;25309;48.686;9.170;2024-02-21T08:40:22;10.10;99.90
39621;DHT22;25309;48.686;9.170;2024-02-21T08:42:51;10.10;99.90
39621;DHT22;25309;48.686;9.170;2024-02-21T08:45:18;10.00;99.90
39621;DHT22;25309;48.686;9.170;2024-02-21T08:47:45;10.00;99.90
39621;DHT22;25309;48.686;9.170;2024-02-21T08:50:12;9.90;99.90
39621;DHT22;25309;48.686;9.170;2024-02-21T08:52:54;9.70;99.90
39621;DHT22;25309;48.686;9.170;2024-02-21T08:55:22;9.70;99.90
39621;DHT22;25309;48.686;9.170;2024-02-21T08:57:50;9.70;99.90
39621;DHT22;25309;48.686;9.170;2024-02-21T09:00:17;9.70;99.90
39621;DHT22;25309;48.686;9.170;2024-02-21T09:02:48;9.50;99.90
39621;DHT22;25309;48.686;9.170;2024-02-21T09:05:15;9.40;99.90
39621;DHT22;25309;48.686;9.170;2024-02-21T09:07:42;9.30;99.90
39621;DHT22;25309;48.686;9.170;2024-02-21T09:10:09;9.40;99.90
39621;DHT22;25309;48.686;9.170;2024-02-21T09:12:36;9.30;99.90
39621;DHT22;25309;48.686;9.170;2024-02-21T09:15:06;9.30;99.90
39621;DHT22;25309;48.686;9.170;2024-02-21T09:17:33;9.30;99.90
39621;DHT22;25309;48.686;9.170;2024-02-21T09:20:00;9.30;99.90
39621;DHT22;25309;48.686;9.170;2024-02-21T09:22:30;9.40;99.90
39621;DHT22;25309;48.686;9.170;2024-02-21T09:24:58;9.40;99.90
39621;DHT22;25309;48.686;9.170;2024-02-21T09:27:25;9.50;99.90
39621;DHT22;25309;48.686;9.170;2024-02-21T09:29:52;9.60;99.90
39621;DHT22;25309;48.686;9.170;2024-02-21T09:32:21;9.80;99.90
39621;DHT22;25309;48.686;9.170;2024-02-21T09:34:48;10.00;99.90
39621;DHT22;25309;48.686;9.170;2024-02-21T09:37:15;10.30;99.90
39621;DHT22;25309;48.686;9.170;2024-02-21T09:39:42;10.40;99.90
39621;DHT22;25309;48.686;9.170;2024-02-21T09:42:11;10.80;99.90
39621;DHT22;25309;48.686;9.170;2024-02-21T09:44:38;11.10;99.90
39621;DHT22;25309;48.686;9.170;2024-02-21T09:47:09;11.50;99.90
39621;DHT22;25309;48.686;9.170;2024-02-21T09:49:39;12.00;99.90
39621;DHT22;25309;48.686;9.170;2024-02-21T09:52:08;12.20;99.90
39621;DHT22;25309;48.686;9.170;2024-02-21T09:54:35;12.30;99.90
39621;DHT22;25309;48.686;9.170;2024-02-21T09:57:03;12.20;99.90
39621;DHT22;25309;48.686;9.170;2024-02-21T09:59:33;12.20;99.90
39621;DHT22;25309;48.686;9.170;2024-02-21T10:02:00;12.20;99.90
39621;DHT22;25309;48.686;9.170;2024-02-21T10:04:27;12.40;99.90
39621;DHT22;25309;48.686;9.170;2024-02-21T10:06:56;12.60;99.90
39621;DHT22;25309;48.686;9.170;2024-02-21T10:09:24;12.90;99.90
39621;DHT22;25309;48.686;9.170;2024-02-21T10:11:55;13.20;99.90
39621;DHT22;25309;48.686;9.170;2024-02-21T10:14:22;13.50;99.90
39621;DHT22;25309;48.686;9.170;2024-02-21T10:16:56;13.40;99.90
39621;DHT22;25309;48.686;9.170;2024-02-21T10:19:27;13.30;99.90
39621;DHT22;25309;48.686;9.170;2024-02-21T10:22:04;13.40;99.90
39621;DHT22;25309;48.686;9.170;2024-02-21T10:24:31;13.60;99.90
39621;DHT22;25309;48.686;9.170;2024-02-21T10:27:03;13.60;99.90
39621;DHT22;25309;48.686;9.170;2024-02-21T10:29:31;13.80;99.90
39621;DHT22;25309;48.686;9.170;2024-02-21T10:32:05;13.90;99.90
39621;DHT22;25309;48.686;9.170;2024-02-21T10:34:37;13.90;99.90
39621;DHT22;25309;48.686;9.170;2024-02-21T10:37:06;14.30;99.90
39621;DHT22;25309;48.686;9.170;2024-02-21T10:39:36;14.30;99.30
39621;DHT22;25309;48.686;9.170;2024-02-21T10:42:04;14.40;99.90
39621;DHT22;25309;48.686;9.170;2024-02-21T10:44:33;14.30;99.80
39621;DHT22;25309;48.686;9.170;2024-02-21T10:47:05;14.10;99.20
39621;DHT22;25309;48.686;9.170;2024-02-21T10:49:38;14.00;99.70
39621;DHT22;25309;48.686;9.170;2024-02-21T10:52:14;14.00;99.60
39621;DHT22;25309;48.686;9.170;2024-02-21T10:54:48;13.70;99.00
39621;DHT22;25309;48.686;9.170;2024-02-21T10:57:19;13.50;99.10
39621;DHT22;25309;48.686;9.170;2024-02-21T10:59:48;13.40;99.40
39621;DHT22;25309;48.686;9.170;2024-02-21T11:02:15;13.40;99.80
39621;DHT22;25309;48.686;9.170;2024-02-21T11:04:43;13.60;99.90
39621;DHT22;25309;48.686;9.170;2024-02-21T11:07:13;13.60;99.50
39621;DHT22;25309;48.686;9.170;2024-02-21T11:09:50;13.80;98.50
39621;DHT22;25309;48.686;9.170;2024-02-21T11:12:20;13.40;98.10
39621;DHT22;25309;48.686;9.170;2024-02-21T11:14:47;13.50;98.00
39621;DHT22;25309;48.686;9.170;2024-02-21T11:17:15;13.50;98.00
39621;DHT22;25309;48.686;9.170;2024-02-21T11:19:43;13.40;97.60
39621;DHT22;25309;48.686;9.170;2024-02-21T11:22:16;13.30;97.90
39621;DHT22;25309;48.686;9.170;2024-02-21T11:24:44;13.20;97.50
39621;DHT22;25309;48.686;9.170;2024-02-21T11:27:12;13.20;98.20
39621;DHT22;25309;48.686;9.170;2024-02-21T11:29:40;13.10;98.00
39621;DHT22;25309;48.686;9.170;2024-02-21T11:32:09;13.20;97.70
39621;DHT22;25309;48.686;9.170;2024-02-21T11:34:38;13.00;97.50
39621;DHT22;25309;48.686;9.170;2024-02-21T11:37:14;13.00;97.30
39621;DHT22;25309;48.686;9.170;2024-02-21T11:39:44;12.90;97.50
39621;DHT22;25309;48.686;9.170;2024-02-21T11:42:12;12.80;97.90
39621;DHT22;25309;48.686;9.170;2024-02-21T11:44:40;12.80;97.60
39621;DHT22;25309;48.686;9.170;2024-02-21T11:47:09;12.70;97.70
39621;DHT22;25309;48.686;9.170;2024-02-21T11:49:38;12.80;98.00
39621;DHT22;25309;48.686;9.170;2024-02-21T11:52:06;12.90;97.50
39621;DHT22;25309;48.686;9.170;2024-02-21T11:54:35;13.00;98.00
39621;DHT22;25309;48.686;9.170;2024-02-21T11:57:02;13.10;97.50
39621;DHT22;25309;48.686;9.170;2024-02-21T11:59:31;13.00;97.00
39621;DHT22;25309;48.686;9.170;2024-02-21T12:01:59;12.90;97.60
39621;DHT22;25309;48.686;9.170;2024-02-21T12:04:27;12.80;97.70
39621;DHT22;25309;48.686;9.170;2024-02-21T12:06:54;12.80;97.60
39621;DHT22;25309;48.686;9.170;2024-02-21T12:09:23;12.80;97.70
39621;DHT22;25309;48.686;9.170;2024-02-21T12:11:58;12.80;97.30
39621;DHT22;25309;48.686;9.170;2024-02-21T12:16:54;12.90;97.20
39621;DHT22;25309;48.686;9.170;2024-02-21T12:19:22;12.90;97.50
39621;DHT22;25309;48.686;9.170;2024-02-21T12:21:49;13.10;96.80
39621;DHT22;25309;48.686;9.170;2024-02-21T12:24:22;13.20;97.00
39621;DHT22;25309;48.686;9.170;2024-02-21T12:26:49;13.10;96.30
39621;DHT22;25309;48.686;9.170;2024-02-21T12:29:18;13.00;96.00
39621;DHT22;25309;48.686;9.170;2024-02-21T12:31:45;13.10;96.30
39621;DHT22;25309;48.686;9.170;2024-02-21T12:34:14;13.10;95.90
39621;DHT22;25309;48.686;9.170;2024-02-21T12:36:43;13.10;95.80
39621;DHT22;25309;48.686;9.170;2024-02-21T12:39:11;13.30;96.00
39621;DHT22;25309;48.686;9.170;2024-02-21T12:41:38;13.30;95.20
39621;DHT22;25309;48.686;9.170;2024-02-21T12:44:06;13.40;95.40
39621;DHT22;25309;48.686;9.170;2024-02-21T12:46:39;13.40;94.40
39621;DHT22;25309;48.686;9.170;2024-02-21T12:49:07;13.50;94.60
39621;DHT22;25309;48.686;9.170;2024-02-21T12:51:35;13.50;94.50
39621;DHT22;25309;48.686;9.170;2024-02-21T12:54:02;13.50;94.30
39621;DHT22;25309;48.686;9.170;2024-02-21T12:56:32;13.50;94.20
39621;DHT22;25309;48.686;9.170;2024-02-21T12:58:59;13.50;94.30
39621;DHT22;25309;48.686;9.170;2024-02-21T13:01:27;13.50;94.30
39621;DHT22;25309;48.686;9.170;2024-02-21T13:03:56;13.60;94.80
39621;DHT22;25309;48.686;9.170;2024-02-21T13:06:24;13.70;94.00
39621;DHT22;25309;48.686;9.170;2024-02-21T13:08:52;13.70;93.90
39621;DHT22;25309;48.686;9.170;2024-02-21T13:11:19;13.70;93.90
39621;DHT22;25309;48.686;9.170;2024-02-21T13:13:47;13.70;93.50
39621;DHT22;25309;48.686;9.170;2024-02-21T13:16:14;13.70;94.20
39621;DHT22;25309;48.686;9.170;2024-02-21T13:18:41;13.70;93.90
39621;DHT22;25309;48.686;9.170;2024-02-21T13:21:12;13.60;93.70
39621;DHT22;25309;48.686;9.170;2024-02-21T13:23:40;13.70;94.10
39621;DHT22;25309;48.686;9.170;2024-02-21T13:26:07;13.80;94.10
39621;DHT22;25309;48.686;9.170;2024-02-21T13:28:34;13.80;92.60
39621;DHT22;25309;48.686;9.170;2024-02-21T13:31:01;13.70;92.60
39621;DHT22;25309;48.686;9.170;2024-02-21T13:33:29;13.80;93.40
39621;DHT22;25309;48.686;9.170;2024-02-21T13:35:56;13.90;94.00
39621;DHT22;25309;48.686;9.170;2024-02-21T13:38:25;14.10;93.20
39621;DHT22;25309;48.686;9.170;2024-02-21T13:40:52;14.10;92.30
39621;DHT22;25309;48.686;9.170;2024-02-21T13:43:20;14.10;92.20
39621;DHT22;25309;48.686;9.170;2024-02-21T13:45:57;14.00;92.40
39621;DHT22;25309;48.686;9.170;2024-02-21T13:48:25;14.00;92.50
39621;DHT22;25309;48.686;9.170;2024-02-21T13:50:52;13.90;93.00
39621;DHT22;25309;48.686;9.170;2024-02-21T13:53:19;13.80;93.20
39621;DHT22;25309;48.686;9.170;2024-02-21T13:55:48;13.80;93.60
39621;DHT22;25309;48.686;9.170;2024-02-21T13:58:16;13.80;93.50
39621;DHT22;25309;48.686;9.170;2024-02-21T14:00:43;13.80;93.80
39621;DHT22;25309;48.686;9.170;2024-02-21T14:03:10;13.80;93.60
39621;DHT22;25309;48.686;9.170;2024-02-21T14:05:38;13.70;93.80
39621;DHT22;25309;48.686;9.170;2024-02-21T14:08:09;13.60;94.00
39621;DHT22;25309;48.686;9.170;2024-02-21T14:10:36;13.60;94.60
39621;DHT22;25309;48.686;9.170;2024-02-21T14:13:05;13.60;94.10
39621;DHT22;25309;48.686;9.170;2024-02-21T14:15:32;13.50;94.50
39621;DHT22;25309;48.686;9.170;2024-02-21T14:17:59;13.50;94.70
39621;DHT22;25309;48.686;9.170;2024-02-21T14:20:26;13.50;95.10
39621;DHT22;25309;48.686;9.170;2024-02-21T14:22:53;13.50;95.10
39621;DHT22;25309;48.686;9.170;2024-02-21T14:25:20;13.50;95.20
39621;DHT22;25309;48.686;9.170;2024-02-21T14:27:48;13.40;95.30
39621;DHT22;25309;48.686;9.170;2024-02-21T14:30:16;13.40;95.50
39621;DHT22;25309;48.686;9.170;2024-02-21T14:32:44;13.30;95.80
39621;DHT22;25309;48.686;9.170;2024-02-21T14:35:12;13.40;95.90
39621;DHT22;25309;48.686;9.170;2024-02-21T14:37:39;13.40;95.90
39621;DHT22;25309;48.686;9.170;2024-02-21T14:40:07;13.40;96.00
39621;DHT22;25309;48.686;9.170;2024-02-21T14:42:35;13.40;96.20
39621;DHT22;25309;48.686;9.170;2024-02-21T14:45:02;13.40;96.40
39621;DHT22;25309;48.686;9.170;2024-02-21T14:47:33;13.40;96.00
39621;DHT22;25309;48.686;9.170;2024-02-21T14:50:02;13.50;96.30
39621;DHT22;25309;48.686;9.170;2024-02-21T14:52:31;13.40;96.60
39621;DHT22;25309;48.686;9.170;2024-02-21T14:55:00;13.40;96.40
39621;DHT22;25309;48.686;9.170;2024-02-21T14:57:29;13.40;96.90
39621;DHT22;25309;48.686;9.170;2024-02-21T14:59:56;13.40;97.80
39621;DHT22;25309;48.686;9.170;2024-02-21T15:02:26;13.30;96.80
39621;DHT22;25309;48.686;9.170;2024-02-21T15:04:56;13.30;97.10
39621;DHT22;25309;48.686;9.170;2024-02-21T15:07:23;13.40;97.40
39621;DHT22;25309;48.686;9.170;2024-02-21T15:09:52;13.30;97.40
39621;DHT22;25309;48.686;9.170;2024-02-21T15:12:19;13.30;97.70
39621;DHT22;25309;48.686;9.170;2024-02-21T15:14:46;13.30;97.70
39621;DHT22;25309;48.686;9.170;2024-02-21T15:17:13;13.20;98.00
39621;DHT22;25309;48.686;9.170;2024-02-21T15:19:41;13.30;98.10
39621;DHT22;25309;48.686;9.170;2024-02-21T15:22:12;13.20;97.70
39621;DHT22;25309;48.686;9.170;2024-02-21T15:24:40;13.10;97.80
39621;DHT22;25309;48.686;9.170;2024-02-21T15:27:07;13.10;97.80
39621;DHT22;25309;48.686;9.170;2024-02-21T15:29:37;13.00;98.50
39621;DHT22;25309;48.686;9.170;2024-02-21T15:32:05;12.90;98.90
39621;DHT22;25309;48.686;9.170;2024-02-21T15:34:32;12.90;99.00
39621;DHT22;25309;48.686;9.170;2024-02-21T15:37:00;13.00;98.90
39621;DHT22;25309;48.686;9.170;2024-02-21T15:39:28;13.00;99.30
39621;DHT22;25309;48.686;9.170;2024-02-21T15:41:55;13.00;99.00
39621;DHT22;25309;48.686;9.170;2024-02-21T15:44:24;13.00;99.10
39621;DHT22;25309;48.686;9.170;2024-02-21T15:46:51;12.90;99.30